Fukui, Japan

10:27 AM JST on February 06, 2016 (GMT +0900)
Komatsu | | Change Station
CLOSE
Current Station
Airport
Location: Komatsu AB,
Elevation: 30 ft
Nearby Weather Stations

Elev 30 ft 36.39 °N, 136.41 °E | Updated 27 minutes ago

Mostly Cloudy
Mostly Cloudy
46 °F
Feels Like 42 °F
N
10
Wind Variable Wind from West

Today
High -- | Low -- °F
--% Chance of Precip.
Yesterday
High -- | Low -- °F
Precip. -- in
Pressure 30.01 in
Visibility 6.2 miles
Clouds Few 1000 ft
Mostly Cloudy 2500 ft
Mostly Cloudy 4000 ft
Windchill 42 °F
Dew Point 30 °F
Humidity 53%
Rainfall 0.00 in
Snow Depth Not available.
6:53 AM 5:26 PM
Waning Crescent, 8% visible
METAR RJNK 060100Z 28009KT 9999 FEW010 BKN025 BKN040 08/M01 Q1016
Pressure 30.01 in
Visibility 6.2 miles
Clouds Few 1000 ft
Mostly Cloudy 2500 ft
Mostly Cloudy 4000 ft
Windchill 42 °F
Dew Point 30 °F
Humidity 53%
Rainfall 0.00 in
Snow Depth Not available.
6:53 AM 5:26 PM
Waning Crescent, 8% visible
METAR RJNK 060100Z 28009KT 9999 FEW010 BKN025 BKN040 08/M01 Q1016

10-Day Weather Forecast

No radar image for this location.
×

Almanac

Astronomy

Feb. 06, 2016 Rise Set
Actual Time
Civil Twilight
Nautical Twilight
Astronomical Twilight
Moon
Length of Visible Light
Length of Day
Tomorrow will be .
, % of the Moon is Illuminated

Today's Extremes

Country Highs Country Lows

Community

WunderPhotos

Upload Photos

1,890,904 photos uploaded!

WunderBlog® & News

Nearby

Air Quality

  Air Quality AQ Index Pollutant
Not available.

Snow Depth

Station Depth Elevation

Earthquake Activity

City Distance Mag. Time & Date
Minimum magnitude displayed is 2.5.

Coastal Water Temperatures

Place Temperature

Stations

Nearby Weather Stations

Station Location Temp. Windchill Dew Point Humidity Wind Precip. Elev Updated Type